PWSweather.com
Personal Weather Stations
Station Observations
WISCHPK61
Green Bay Schmitt Park, Green Bay, WI 54311

Green Bay Schmitt ParkGreen Bay, WI 54311

Lat: 44.514277, Lon: -87.935067

Elevation: 735

Station Type: Acu Rite Pro Weather Center model 02032C

http://greenbayweathercam.com

High Low Average
Temperature 30.1°F-1.1°C 16.5°F-8.6°C 23.3°F-4.8°C
Dew Point 29.8°F-1.2°C 16.0°F-8.9°C 22.9°F-5.1°C
Winds Calm Calm Calm Calm Calm SCalm S
Wind Gusts -- -- --
Humidity 99% 97% 98%
Pressure 29.57 in1001.4 mb 29.35 in993.9 mb -
Precipitation 0.00 in0.0 mm - -
Hour Temp Dew Point Humidity Winds Wind Gusts Pressure Precip Precip Rate Daily Precip Total
12:00 AM 17.6°F-8.0°C 17.1°F-8.3°C 98% Calm Calm -- 29.55 in1000.7 mb - 0.00 in0.0 mm 0.00 in0.0 mm
01:00 AM 17.4°F-8.1°C 16.9°F-8.4°C 98% Calm Calm -- 29.55 in1000.7 mb - 0.00 in0.0 mm 0.00 in0.0 mm
02:00 AM 16.9°F-8.4°C 16.7°F-8.5°C 99% Calm Calm -- 29.56 in1001.0 mb - 0.00 in0.0 mm 0.00 in0.0 mm
03:00 AM 16.7°F-8.5°C 16.0°F-8.9°C 97% Calm Calm -- 29.56 in1001.0 mb - 0.00 in0.0 mm 0.00 in0.0 mm
04:00 AM 16.7°F-8.5°C 16.2°F-8.8°C 98% Calm Calm -- 29.56 in1001.0 mb - 0.00 in0.0 mm 0.00 in0.0 mm
05:00 AM 16.5°F-8.6°C 16.0°F-8.9°C 98% Calm Calm -- 29.57 in1001.4 mb - 0.00 in0.0 mm 0.00 in0.0 mm
06:00 AM 16.7°F-8.5°C 16.5°F-8.6°C 99% Calm Calm -- 29.56 in1001.0 mb - 0.00 in0.0 mm 0.00 in0.0 mm
07:00 AM 16.9°F-8.4°C 16.4°F-8.7°C 98% Calm Calm -- 29.56 in1001.0 mb - 0.00 in0.0 mm 0.00 in0.0 mm
08:00 AM 18.0°F-7.8°C 17.6°F-8.0°C 98% Calm Calm -- 29.57 in1001.4 mb - 0.00 in0.0 mm 0.00 in0.0 mm
09:00 AM 20.1°F-6.6°C 19.9°F-6.7°C 99% Calm Calm -- 29.57 in1001.4 mb - 0.00 in0.0 mm 0.00 in0.0 mm
10:00 AM 23.9°F-4.5°C 23.4°F-4.8°C 98% Calm Calm -- 29.55 in1000.7 mb - 0.00 in0.0 mm 0.00 in0.0 mm
11:00 AM 29.1°F-1.6°C 28.6°F-1.9°C 98% Calm Calm -- 29.55 in1000.7 mb - 0.00 in0.0 mm 0.00 in0.0 mm
12:00 PM 30.1°F-1.1°C 29.8°F-1.2°C 99% Calm Calm -- 29.52 in999.7 mb - 0.00 in0.0 mm 0.00 in0.0 mm
01:00 PM 29.4°F-1.4°C 29.2°F-1.6°C 99% Calm Calm -- 29.50 in999.0 mb - 0.00 in0.0 mm 0.00 in0.0 mm
02:00 PM 29.1°F-1.6°C 28.6°F-1.9°C 98% Calm Calm -- 29.49 in998.6 mb - 0.00 in0.0 mm 0.00 in0.0 mm
03:00 PM 28.4°F-2.0°C 28.2°F-2.1°C 99% Calm Calm -- 29.49 in998.6 mb - 0.00 in0.0 mm 0.00 in0.0 mm
04:00 PM 27.7°F-2.4°C 27.5°F-2.5°C 99% Calm Calm -- 29.48 in998.3 mb - 0.00 in0.0 mm 0.00 in0.0 mm
05:00 PM 27.0°F-2.8°C 26.5°F-3.1°C 98% Calm Calm -- 29.48 in998.3 mb - 0.00 in0.0 mm 0.00 in0.0 mm
06:00 PM 26.6°F-3.0°C 26.1°F-3.3°C 98% Calm Calm -- 29.46 in997.6 mb - 0.00 in0.0 mm 0.00 in0.0 mm
07:00 PM 26.6°F-3.0°C 26.4°F-3.1°C 99% Calm Calm -- 29.47 in998.0 mb - 0.00 in0.0 mm 0.00 in0.0 mm
08:00 PM 26.6°F-3.0°C 26.4°F-3.1°C 99% Calm Calm -- 29.45 in997.3 mb - 0.00 in0.0 mm 0.00 in0.0 mm
09:00 PM 26.6°F-3.0°C 26.1°F-3.3°C 98% Calm Calm -- 29.42 in996.3 mb - 0.00 in0.0 mm 0.00 in0.0 mm
10:00 PM 26.6°F-3.0°C 26.4°F-3.1°C 99% Calm Calm -- 29.38 in994.9 mb - 0.00 in0.0 mm 0.00 in0.0 mm
11:00 PM 26.8°F-2.9°C 26.6°F-3.0°C 99% Calm Calm -- 29.35 in993.9 mb - 0.00 in0.0 mm 0.00 in0.0 mm